createdAt,value
2022-10-14T00:00:22.835Z,18
2022-10-14T00:01:22.823Z,17
2022-10-14T00:02:22.836Z,17
2022-10-14T00:03:22.836Z,16
2022-10-14T00:04:22.837Z,16
2022-10-14T00:05:22.824Z,17
2022-10-14T00:06:22.837Z,17
2022-10-14T00:07:22.838Z,16
2022-10-14T00:08:22.838Z,15
2022-10-14T00:09:22.825Z,16
2022-10-14T00:10:22.839Z,17
2022-10-14T00:11:22.839Z,17
2022-10-14T00:12:22.826Z,19
2022-10-14T00:13:22.826Z,16
2022-10-14T00:14:22.840Z,18
2022-10-14T00:15:22.841Z,18
2022-10-14T00:16:22.827Z,18
2022-10-14T00:17:22.828Z,19
2022-10-14T00:18:22.841Z,18
2022-10-14T00:19:22.841Z,15
2022-10-14T00:20:22.829Z,16
2022-10-14T00:21:22.842Z,16
2022-10-14T00:22:22.842Z,17
2022-10-14T00:23:22.843Z,17
2022-10-14T00:24:22.830Z,19
2022-10-14T00:25:22.843Z,19
2022-10-14T00:26:22.844Z,18
2022-10-14T00:27:22.844Z,21
2022-10-14T00:28:22.831Z,17
2022-10-14T00:29:22.845Z,18
2022-10-14T00:30:22.845Z,16
2022-10-14T00:31:22.832Z,14
2022-10-14T00:32:22.832Z,12
2022-10-14T00:33:22.846Z,12
2022-10-14T00:34:22.847Z,14
2022-10-14T00:35:22.833Z,10
2022-10-14T00:36:22.847Z,10
2022-10-14T00:37:22.847Z,8
2022-10-14T00:38:22.847Z,9
2022-10-14T00:39:22.835Z,9
2022-10-14T00:40:22.848Z,10
2022-10-14T00:41:22.901Z,11
2022-10-14T00:42:22.849Z,12
2022-10-14T00:43:22.836Z,12
2022-10-14T00:44:22.850Z,10
2022-10-14T00:45:22.850Z,11
2022-10-14T00:46:22.850Z,13
2022-10-14T00:47:22.837Z,12
2022-10-14T00:48:22.850Z,14
2022-10-14T00:49:22.851Z,13
2022-10-14T00:50:22.838Z,14
2022-10-14T00:51:22.838Z,15
2022-10-14T00:52:22.852Z,18
2022-10-14T00:53:22.853Z,17
2022-10-14T00:54:22.839Z,13
2022-10-14T00:55:22.853Z,15
2022-10-14T00:56:22.853Z,13
2022-10-14T00:57:22.853Z,18
2022-10-14T00:58:22.841Z,19
2022-10-14T00:59:22.854Z,17
2022-10-14T01:00:22.855Z,16
2022-10-14T01:01:22.855Z,17
2022-10-14T01:02:22.842Z,16
2022-10-14T01:03:22.855Z,16
2022-10-14T01:04:22.856Z,21
2022-10-14T01:05:22.867Z,22
2022-10-14T01:06:22.843Z,22
2022-10-14T01:07:22.856Z,19
2022-10-14T01:08:22.857Z,18
2022-10-14T01:09:22.844Z,18
2022-10-14T01:10:22.844Z,20
2022-10-14T01:11:22.858Z,21
2022-10-14T01:12:22.922Z,19
2022-10-14T01:13:22.845Z,20
2022-10-14T01:14:22.859Z,21
2022-10-14T01:15:22.859Z,20
2022-10-14T01:16:22.859Z,17
2022-10-14T01:17:22.846Z,18
2022-10-14T01:18:22.860Z,19
2022-10-14T01:19:22.861Z,17
2022-10-14T01:20:22.861Z,18
2022-10-14T01:21:22.848Z,15
2022-10-14T01:22:22.861Z,15
2022-10-14T01:23:22.862Z,18
2022-10-14T01:24:22.873Z,19
2022-10-14T01:25:22.849Z,18
2022-10-14T01:26:22.862Z,18
2022-10-14T01:27:22.863Z,17
2022-10-14T01:28:22.850Z,20
2022-10-14T01:29:22.850Z,20
2022-10-14T01:30:22.864Z,20
2022-10-14T01:31:22.865Z,20
2022-10-14T01:32:22.851Z,20
2022-10-14T01:33:22.865Z,20
2022-10-14T01:34:22.865Z,21
2022-10-14T01:35:22.865Z,19
2022-10-14T01:36:22.852Z,18
2022-10-14T01:37:22.866Z,18
2022-10-14T01:38:22.867Z,20
2022-10-14T01:39:22.866Z,20
2022-10-14T01:40:22.854Z,19
2022-10-14T01:41:22.867Z,18
2022-10-14T01:42:22.868Z,21
2022-10-14T01:43:22.855Z,20
2022-10-14T01:44:22.855Z,17
2022-10-14T01:45:22.868Z,15
2022-10-14T01:46:22.869Z,17
2022-10-14T01:47:22.856Z,17
2022-10-14T01:48:22.934Z,17
2022-10-14T01:49:22.869Z,17
2022-10-14T01:50:22.870Z,16
2022-10-14T01:51:22.857Z,18
2022-10-14T01:52:22.871Z,18
2022-10-14T01:53:22.871Z,18
2022-10-14T01:54:22.871Z,19
2022-10-14T01:55:22.858Z,17
2022-10-14T01:56:22.872Z,15
2022-10-14T01:57:22.873Z,16
2022-10-14T01:58:22.872Z,15
2022-10-14T01:59:22.860Z,15
2022-10-14T02:00:22.899Z,15
2022-10-14T02:01:22.874Z,15
2022-10-14T02:02:22.860Z,15
2022-10-14T02:03:22.861Z,12
2022-10-14T02:04:22.874Z,12
2022-10-14T02:05:22.875Z,13
2022-10-14T02:06:22.862Z,11
2022-10-14T02:07:22.875Z,14
2022-10-14T02:08:22.875Z,13
2022-10-14T02:09:22.876Z,12
2022-10-14T02:10:22.863Z,13
2022-10-14T02:11:22.877Z,15
2022-10-14T02:12:22.943Z,13
2022-10-14T02:13:22.877Z,12
2022-10-14T02:14:22.864Z,12
2022-10-14T02:15:22.878Z,13
2022-10-14T02:16:22.878Z,15
2022-10-14T02:17:22.878Z,16
2022-10-14T02:18:22.865Z,14
2022-10-14T02:19:22.879Z,14
2022-10-14T02:20:22.880Z,13
2022-10-14T02:21:22.866Z,15
2022-10-14T02:22:22.867Z,15
2022-10-14T02:23:22.880Z,14
2022-10-14T02:24:22.945Z,13
2022-10-14T02:25:22.868Z,14
2022-10-14T02:26:22.881Z,14
2022-10-14T02:27:22.881Z,13
2022-10-14T02:28:22.882Z,10
2022-10-14T02:29:22.869Z,11
2022-10-14T02:30:22.882Z,12
2022-10-14T02:31:22.883Z,10
2022-10-14T02:32:22.883Z,11
2022-10-14T02:33:22.870Z,15
2022-10-14T02:34:22.884Z,14
2022-10-14T02:35:22.885Z,12
2022-10-14T02:36:22.884Z,13
2022-10-14T02:37:22.871Z,13
2022-10-14T02:38:22.885Z,13
2022-10-14T02:39:22.886Z,12
2022-10-14T02:40:22.872Z,13
2022-10-14T02:41:22.873Z,12
2022-10-14T02:42:22.886Z,12
2022-10-14T02:43:22.886Z,12
2022-10-14T02:44:22.874Z,12
2022-10-14T02:45:22.887Z,11
2022-10-14T02:46:22.887Z,13
2022-10-14T02:47:22.888Z,12
2022-10-14T02:48:22.875Z,12
2022-10-14T02:49:22.888Z,13
2022-10-14T02:50:22.889Z,13
2022-10-14T02:51:22.889Z,13
2022-10-14T02:52:22.876Z,13
2022-10-14T02:53:22.890Z,16
2022-10-14T02:55:22.877Z,18
2022-10-14T02:56:22.877Z,16
2022-10-14T02:57:22.891Z,18
2022-10-14T02:58:22.892Z,16
2022-10-14T02:59:22.878Z,14
2022-10-14T03:00:22.879Z,15
2022-10-14T03:01:22.892Z,19
2022-10-14T03:02:22.892Z,16
2022-10-14T03:03:22.880Z,15
2022-10-14T03:04:22.893Z,16
2022-10-14T03:05:22.893Z,15
2022-10-14T03:06:22.894Z,15
2022-10-14T03:07:22.893Z,16
2022-10-14T03:08:22.894Z,16
2022-10-14T03:09:22.895Z,14
2022-10-14T03:10:22.895Z,14
2022-10-14T03:11:22.882Z,13
2022-10-14T03:12:22.895Z,13
2022-10-14T03:13:22.896Z,13
2022-10-14T03:14:22.883Z,13
2022-10-14T03:15:22.883Z,12
2022-10-14T03:16:22.897Z,12
2022-10-14T03:17:22.898Z,11
2022-10-14T03:18:22.884Z,9
2022-10-14T03:19:22.962Z,13
2022-10-14T03:20:22.898Z,12
2022-10-14T03:21:22.898Z,13
2022-10-14T03:22:22.885Z,14
2022-10-14T03:23:22.899Z,13
2022-10-14T03:24:22.899Z,12
2022-10-14T03:25:22.899Z,12
2022-10-14T03:26:22.887Z,11
2022-10-14T03:27:22.900Z,13
2022-10-14T03:28:22.901Z,14
2022-10-14T03:29:22.901Z,13
2022-10-14T03:30:22.888Z,11
2022-10-14T03:31:22.942Z,11
2022-10-14T03:32:22.902Z,11
2022-10-14T03:33:22.889Z,11
2022-10-14T03:34:22.889Z,12
2022-10-14T03:35:22.903Z,12
2022-10-14T03:36:22.903Z,12
2022-10-14T03:37:22.890Z,13
2022-10-14T03:38:22.904Z,10
2022-10-14T03:39:22.904Z,10
2022-10-14T03:40:22.904Z,12
2022-10-14T03:41:22.891Z,9
2022-10-14T03:42:22.905Z,11
2022-10-14T03:43:22.949Z,11
2022-10-14T03:44:22.905Z,9
2022-10-14T03:45:22.893Z,11
2022-10-14T03:46:22.906Z,13
2022-10-14T03:47:22.907Z,10
2022-10-14T03:48:22.907Z,10
2022-10-14T03:49:22.894Z,11
2022-10-14T03:50:22.907Z,11
2022-10-14T03:51:22.908Z,13
2022-10-14T03:52:22.895Z,11
2022-10-14T03:53:22.895Z,13
2022-10-14T03:54:22.908Z,14
2022-10-14T03:55:22.910Z,15
2022-10-14T03:56:22.896Z,12
2022-10-14T03:57:22.910Z,13
2022-10-14T03:58:22.910Z,12
2022-10-14T03:59:22.910Z,13
2022-10-14T04:00:22.897Z,17
2022-10-14T04:01:22.911Z,16
2022-10-14T04:02:22.912Z,19
2022-10-14T04:03:22.911Z,19
2022-10-14T04:04:22.899Z,21
2022-10-14T04:05:22.912Z,22
2022-10-14T04:06:22.913Z,20
2022-10-14T04:07:22.900Z,22
2022-10-14T04:08:22.900Z,23
2022-10-14T04:09:22.913Z,26
2022-10-14T04:10:22.914Z,25
2022-10-14T04:11:22.901Z,24
2022-10-14T04:12:22.901Z,28
2022-10-14T04:13:22.915Z,21
2022-10-14T04:14:22.915Z,21
2022-10-14T04:15:22.902Z,25
2022-10-14T04:16:22.916Z,23
2022-10-14T04:17:22.916Z,29
2022-10-14T04:18:22.916Z,24
2022-10-14T04:19:22.903Z,24
2022-10-14T04:20:22.917Z,27
2022-10-14T04:21:22.918Z,27
2022-10-14T04:22:22.917Z,23
2022-10-14T04:23:22.905Z,21
2022-10-14T04:24:22.918Z,22
2022-10-14T04:25:22.919Z,17
2022-10-14T04:26:22.905Z,17
2022-10-14T04:27:22.906Z,20
2022-10-14T04:28:22.919Z,19
2022-10-14T04:29:22.920Z,18
2022-10-14T04:30:22.907Z,19
2022-10-14T04:31:22.907Z,22
2022-10-14T04:32:22.921Z,19
2022-10-14T04:33:22.921Z,21
2022-10-14T04:34:22.908Z,23
2022-10-14T04:35:22.922Z,23
2022-10-14T04:36:22.922Z,22
2022-10-14T04:37:22.922Z,21
2022-10-14T04:38:22.909Z,23
2022-10-14T04:39:22.923Z,23
2022-10-14T04:40:22.924Z,24
2022-10-14T04:41:22.923Z,24
2022-10-14T04:42:22.911Z,27
2022-10-14T04:43:22.924Z,23
2022-10-14T04:44:22.925Z,25
2022-10-14T04:45:22.912Z,27
2022-10-14T04:46:22.912Z,24
2022-10-14T04:47:22.925Z,25
2022-10-14T04:48:22.926Z,22
2022-10-14T04:49:22.913Z,22
2022-10-14T04:50:22.913Z,27
2022-10-14T04:51:22.926Z,23
2022-10-14T04:52:22.927Z,25
2022-10-14T04:53:22.914Z,25
2022-10-14T04:54:22.928Z,29
2022-10-14T04:55:22.928Z,29
2022-10-14T04:56:22.928Z,29
2022-10-14T04:57:22.915Z,25
2022-10-14T04:58:22.929Z,26
2022-10-14T04:59:22.930Z,27
2022-10-14T05:00:22.929Z,24
2022-10-14T05:01:22.917Z,22
2022-10-14T05:02:22.930Z,24
2022-10-14T05:03:22.931Z,22
2022-10-14T05:04:22.917Z,19
2022-10-14T05:05:22.918Z,18
2022-10-14T05:06:22.931Z,19
2022-10-14T05:07:22.932Z,20
2022-10-14T05:08:22.919Z,23
2022-10-14T05:09:22.919Z,14
2022-10-14T05:10:22.932Z,16
2022-10-14T05:11:22.933Z,19
2022-10-14T05:12:22.920Z,22
2022-10-14T05:13:22.933Z,19
2022-10-14T05:14:22.934Z,25
2022-10-14T05:15:22.934Z,24
2022-10-14T05:16:22.921Z,27
2022-10-14T05:17:22.934Z,25
2022-10-14T05:18:22.935Z,26
2022-10-14T05:19:22.935Z,36
2022-10-14T05:20:22.922Z,30
2022-10-14T05:21:22.936Z,30
2022-10-14T05:22:22.937Z,27
2022-10-14T05:23:22.923Z,29
2022-10-14T05:24:22.924Z,32
2022-10-14T05:25:22.937Z,31
2022-10-14T05:26:22.938Z,26
2022-10-14T05:27:22.925Z,31
2022-10-14T05:28:22.988Z,31
2022-10-14T05:29:22.938Z,28
2022-10-14T05:30:22.939Z,34
2022-10-14T05:31:22.926Z,30
2022-10-14T05:32:22.939Z,31
2022-10-14T05:33:22.939Z,24
2022-10-14T05:34:22.940Z,27
2022-10-14T05:35:22.927Z,27
2022-10-14T05:36:22.941Z,27
2022-10-14T05:37:22.941Z,28
2022-10-14T05:38:22.941Z,30
2022-10-14T05:39:22.928Z,35
2022-10-14T05:40:22.942Z,34
2022-10-14T05:41:22.942Z,34
2022-10-14T05:42:22.929Z,39
2022-10-14T05:43:22.930Z,36
2022-10-14T05:44:22.943Z,34
2022-10-14T05:45:22.944Z,30
2022-10-14T05:46:22.930Z,29
2022-10-14T05:47:22.944Z,29
2022-10-14T05:48:22.944Z,31
2022-10-14T05:49:22.945Z,28
2022-10-14T05:50:22.932Z,36
2022-10-14T05:51:22.945Z,41
2022-10-14T05:52:22.989Z,36
2022-10-14T05:53:22.946Z,41
2022-10-14T05:54:22.933Z,40
2022-10-14T05:55:22.946Z,37
2022-10-14T05:56:22.947Z,41
2022-10-14T05:57:22.947Z,38
2022-10-14T05:58:22.934Z,38
2022-10-14T05:59:22.948Z,38
2022-10-14T06:00:22.948Z,41
2022-10-14T06:01:22.935Z,39
2022-10-14T06:02:22.935Z,30
2022-10-14T06:03:22.949Z,33
2022-10-14T06:04:23.013Z,35
2022-10-14T06:05:22.936Z,38
2022-10-14T06:06:22.950Z,39
2022-10-14T06:07:22.950Z,31
2022-10-14T06:08:22.950Z,28
2022-10-14T06:09:22.938Z,34
2022-10-14T06:10:22.951Z,35
2022-10-14T06:11:22.978Z,36
2022-10-14T06:12:22.952Z,43
2022-10-14T06:13:22.939Z,42
2022-10-14T06:14:22.952Z,39
2022-10-14T06:15:22.953Z,41
2022-10-14T06:16:22.953Z,42
2022-10-14T06:17:22.940Z,52
2022-10-14T06:18:22.954Z,51
2022-10-14T06:19:22.954Z,47
2022-10-14T06:20:22.941Z,50
2022-10-14T06:21:22.941Z,53
2022-10-14T06:22:22.955Z,52
2022-10-14T06:23:23.019Z,39
2022-10-14T06:24:22.942Z,42
2022-10-14T06:25:22.956Z,42
2022-10-14T06:26:22.956Z,49
2022-10-14T06:27:22.956Z,54
2022-10-14T06:28:22.944Z,45
2022-10-14T06:29:22.957Z,45
2022-10-14T06:30:22.958Z,55
2022-10-14T06:31:22.958Z,41
2022-10-14T06:32:22.945Z,48
2022-10-14T06:33:22.958Z,44
2022-10-14T06:34:22.959Z,52
2022-10-14T06:35:22.971Z,54
2022-10-14T06:36:22.946Z,58
2022-10-14T06:37:22.960Z,56
2022-10-14T06:38:22.960Z,51
2022-10-14T06:39:22.947Z,62
2022-10-14T06:40:22.947Z,67
2022-10-14T06:41:22.961Z,59
2022-10-14T06:42:22.962Z,49
2022-10-14T06:43:22.948Z,49
2022-10-14T06:44:22.962Z,52
2022-10-14T06:45:22.962Z,56
2022-10-14T06:46:22.962Z,44
2022-10-14T06:47:22.950Z,50
2022-10-14T06:48:22.963Z,49
2022-10-14T06:49:22.964Z,45
2022-10-14T06:50:22.964Z,47
2022-10-14T06:51:22.951Z,47
2022-10-14T06:52:22.964Z,42
2022-10-14T06:53:22.965Z,47
2022-10-14T06:54:22.952Z,41
2022-10-14T06:55:22.952Z,44
2022-10-14T06:56:22.966Z,42
2022-10-14T06:57:22.967Z,49
2022-10-14T06:58:22.953Z,49
2022-10-14T06:59:22.953Z,48
2022-10-14T07:00:22.967Z,50
2022-10-14T07:01:22.967Z,51
2022-10-14T07:02:22.954Z,61
2022-10-14T07:03:22.968Z,56
2022-10-14T07:04:22.968Z,61
2022-10-14T07:05:22.968Z,61
2022-10-14T07:06:22.956Z,54
2022-10-14T07:07:22.969Z,55
2022-10-14T07:08:22.970Z,56
2022-10-14T07:09:22.970Z,52
2022-10-14T07:10:22.957Z,56
2022-10-14T07:11:22.970Z,46
2022-10-14T07:12:22.971Z,45
2022-10-14T07:13:22.958Z,50
2022-10-14T07:14:22.958Z,52
2022-10-14T07:15:22.972Z,56
2022-10-14T07:16:22.973Z,48
2022-10-14T07:17:22.959Z,49
2022-10-14T07:18:23.023Z,39
2022-10-14T07:19:22.973Z,50
2022-10-14T07:20:22.974Z,40
2022-10-14T07:21:22.961Z,45
2022-10-14T07:22:22.974Z,40
2022-10-14T07:23:22.974Z,49
2022-10-14T07:24:22.975Z,45
2022-10-14T07:25:22.962Z,40
2022-10-14T07:26:22.976Z,47
2022-10-14T07:27:22.977Z,46
2022-10-14T07:28:22.976Z,54
2022-10-14T07:29:22.963Z,44
2022-10-14T07:30:22.978Z,54
2022-10-14T07:31:22.978Z,60
2022-10-14T07:32:22.964Z,55
2022-10-14T07:33:22.965Z,60
2022-10-14T07:34:22.978Z,63
2022-10-14T07:35:22.979Z,53
2022-10-14T07:36:22.966Z,57
2022-10-14T07:37:22.979Z,57
2022-10-14T07:38:22.980Z,49
2022-10-14T07:39:22.980Z,55
2022-10-14T07:40:22.967Z,51
2022-10-14T07:41:22.981Z,56
2022-10-14T07:42:23.034Z,67
2022-10-14T07:43:22.981Z,46
2022-10-14T07:44:22.969Z,57
2022-10-14T07:45:22.982Z,64
2022-10-14T07:46:22.983Z,61
2022-10-14T07:47:22.983Z,56
2022-10-14T07:48:22.970Z,59
2022-10-14T07:49:22.983Z,55
2022-10-14T07:50:22.984Z,57
2022-10-14T07:51:22.971Z,55
2022-10-14T07:52:22.971Z,57
2022-10-14T07:53:22.985Z,61
2022-10-14T07:54:22.986Z,64
2022-10-14T07:55:22.972Z,65
2022-10-14T07:56:22.986Z,71
2022-10-14T07:57:22.986Z,55
2022-10-14T07:58:22.987Z,50
2022-10-14T07:59:22.974Z,45
2022-10-14T08:00:22.988Z,49
2022-10-14T08:01:23.015Z,56
2022-10-14T08:02:22.988Z,55
2022-10-14T08:03:22.975Z,62
2022-10-14T08:04:22.989Z,69
2022-10-14T08:05:22.990Z,68
2022-10-14T08:06:22.989Z,73
2022-10-14T08:07:22.977Z,79
2022-10-14T08:08:22.990Z,65
2022-10-14T08:09:22.991Z,68
2022-10-14T08:10:22.978Z,70
2022-10-14T08:11:22.978Z,65
2022-10-14T08:12:22.992Z,52
2022-10-14T08:13:23.057Z,53
2022-10-14T08:14:22.979Z,72
2022-10-14T08:15:22.993Z,72
2022-10-14T08:16:22.993Z,74
2022-10-14T08:17:22.994Z,79
2022-10-14T08:19:22.994Z,81
2022-10-14T08:20:22.995Z,67
2022-10-14T08:21:22.995Z,75
2022-10-14T08:22:22.982Z,74
2022-10-14T08:23:22.996Z,86
2022-10-14T08:24:22.997Z,93
2022-10-14T08:25:22.983Z,79
2022-10-14T08:26:22.984Z,76
2022-10-14T08:27:22.997Z,69
2022-10-14T08:28:22.998Z,62
2022-10-14T08:29:22.985Z,60
2022-10-14T08:30:22.985Z,66
2022-10-14T08:31:22.999Z,67
2022-10-14T08:32:23.000Z,67
2022-10-14T08:33:22.986Z,77
2022-10-14T08:34:23.000Z,63
2022-10-14T08:35:23.000Z,64
2022-10-14T08:36:23.001Z,68
2022-10-14T08:37:22.988Z,73
2022-10-14T08:38:23.002Z,67
2022-10-14T08:39:23.002Z,63
2022-10-14T08:40:23.002Z,71
2022-10-14T08:41:22.989Z,74
2022-10-14T08:42:23.003Z,61
2022-10-14T08:43:23.004Z,66
2022-10-14T08:44:22.990Z,70
2022-10-14T08:45:22.991Z,68
2022-10-14T08:46:23.004Z,64
2022-10-14T08:47:23.005Z,65
2022-10-14T08:48:22.992Z,73
2022-10-14T08:49:22.992Z,67
2022-10-14T08:50:23.006Z,64
2022-10-14T08:51:23.006Z,61
2022-10-14T08:52:22.994Z,68
2022-10-14T08:53:23.007Z,61
2022-10-14T08:54:23.007Z,68
2022-10-14T08:55:23.008Z,67
2022-10-14T08:56:22.995Z,67
2022-10-14T08:57:23.009Z,63
2022-10-14T08:58:23.010Z,55
2022-10-14T08:59:23.009Z,59
2022-10-14T09:00:22.997Z,53
2022-10-14T09:01:23.010Z,53
2022-10-14T09:02:23.011Z,56
2022-10-14T09:03:22.998Z,57
2022-10-14T09:04:22.998Z,58
2022-10-14T09:05:23.012Z,60
2022-10-14T09:06:23.013Z,61
2022-10-14T09:07:22.999Z,57
2022-10-14T09:08:23.077Z,60
2022-10-14T09:09:23.013Z,61
2022-10-14T09:10:23.014Z,65
2022-10-14T09:11:23.001Z,67
2022-10-14T09:12:23.015Z,75
2022-10-14T09:13:23.015Z,81
2022-10-14T09:14:23.015Z,80
2022-10-14T09:15:23.003Z,83
2022-10-14T09:16:23.016Z,64
2022-10-14T09:17:23.017Z,72
2022-10-14T09:18:23.017Z,52
2022-10-14T09:19:23.004Z,60
2022-10-14T09:20:23.044Z,67
2022-10-14T09:21:23.019Z,71
2022-10-14T09:22:23.006Z,66
2022-10-14T09:23:23.006Z,57
2022-10-14T09:24:23.020Z,65
2022-10-14T09:25:23.021Z,62
2022-10-14T09:26:23.007Z,59
2022-10-14T09:27:23.063Z,60
2022-10-14T09:28:23.021Z,58
2022-10-14T09:29:23.022Z,57
2022-10-14T09:30:23.009Z,65
2022-10-14T09:31:23.023Z,57
2022-10-14T09:32:23.023Z,57
2022-10-14T09:33:23.023Z,56
2022-10-14T09:34:23.011Z,60
2022-10-14T09:35:23.024Z,61
2022-10-14T09:36:23.025Z,57
2022-10-14T09:37:23.025Z,54
2022-10-14T09:38:23.012Z,61
2022-10-14T09:39:23.090Z,58
2022-10-14T09:40:23.027Z,57
2022-10-14T09:41:23.014Z,66
2022-10-14T09:42:23.014Z,67
2022-10-14T09:43:23.028Z,71
2022-10-14T09:44:23.029Z,69
2022-10-14T09:45:23.015Z,64
2022-10-14T09:46:23.031Z,65
2022-10-14T09:47:23.029Z,67
2022-10-14T09:48:23.030Z,72
2022-10-14T09:49:23.017Z,54
2022-10-14T09:50:23.031Z,54
2022-10-14T09:51:23.031Z,60
2022-10-14T09:52:23.032Z,60
2022-10-14T09:53:23.019Z,62
2022-10-14T09:54:23.032Z,59
2022-10-14T09:55:23.033Z,57
2022-10-14T09:56:23.033Z,62
2022-10-14T09:57:23.021Z,68
2022-10-14T09:58:23.035Z,67
2022-10-14T09:59:23.035Z,61
2022-10-14T10:00:23.022Z,77
2022-10-14T10:01:23.022Z,69
2022-10-14T10:02:23.036Z,57
2022-10-14T10:03:23.037Z,52
2022-10-14T10:04:23.024Z,76
2022-10-14T10:05:23.037Z,68
2022-10-14T10:06:23.038Z,72
2022-10-14T10:07:23.038Z,66
2022-10-14T10:08:23.025Z,59
2022-10-14T10:09:23.039Z,71
2022-10-14T10:10:23.040Z,69
2022-10-14T10:11:23.040Z,66
2022-10-14T10:12:23.027Z,49
2022-10-14T10:13:23.040Z,68
2022-10-14T10:14:23.041Z,55
2022-10-14T10:15:23.041Z,67
2022-10-14T10:16:23.029Z,72
2022-10-14T10:17:23.042Z,84
2022-10-14T10:18:23.043Z,87
2022-10-14T10:19:23.030Z,87
2022-10-14T10:20:23.030Z,73
2022-10-14T10:21:23.044Z,75
2022-10-14T10:22:23.044Z,87
2022-10-14T10:23:23.032Z,80
2022-10-14T10:25:23.045Z,77
2022-10-14T10:26:23.046Z,77
2022-10-14T10:27:23.046Z,81
2022-10-14T10:28:23.047Z,67
2022-10-14T10:29:23.048Z,61
2022-10-14T10:30:23.048Z,79
2022-10-14T10:31:23.035Z,70
2022-10-14T10:32:23.048Z,72
2022-10-14T10:33:23.049Z,65
2022-10-14T10:34:23.036Z,75
2022-10-14T10:35:23.036Z,78
2022-10-14T10:36:23.050Z,82
2022-10-14T10:37:23.051Z,78
2022-10-14T10:38:23.038Z,79
2022-10-14T10:39:23.077Z,77
2022-10-14T10:40:23.052Z,83
2022-10-14T10:41:23.052Z,88
2022-10-14T10:42:23.039Z,81
2022-10-14T10:43:23.053Z,75
2022-10-14T10:44:23.053Z,71
2022-10-14T10:45:23.054Z,79
2022-10-14T10:46:23.041Z,73
2022-10-14T10:47:23.055Z,75
2022-10-14T10:48:23.056Z,80
2022-10-14T10:49:23.055Z,80
2022-10-14T10:50:23.043Z,95
2022-10-14T10:51:23.121Z,83
2022-10-14T10:52:23.057Z,77
2022-10-14T10:53:23.044Z,75
2022-10-14T10:54:23.044Z,74
2022-10-14T10:55:23.058Z,75
2022-10-14T10:56:23.059Z,57
2022-10-14T10:57:23.046Z,64
2022-10-14T10:58:23.059Z,58
2022-10-14T10:59:23.059Z,79
2022-10-14T11:00:23.060Z,81
2022-10-14T11:01:23.047Z,92
2022-10-14T11:02:23.061Z,78
2022-10-14T11:03:23.061Z,69
2022-10-14T11:04:23.061Z,66
2022-10-14T11:05:23.049Z,77
2022-10-14T11:06:23.062Z,78
2022-10-14T11:07:23.063Z,72
2022-10-14T11:08:23.063Z,61
2022-10-14T11:09:23.050Z,61
2022-10-14T11:10:23.064Z,71
2022-10-14T11:11:23.065Z,63
2022-10-14T11:12:23.051Z,66
2022-10-14T11:13:23.052Z,67
2022-10-14T11:14:23.065Z,62
2022-10-14T11:15:23.066Z,65
2022-10-14T11:16:23.053Z,70
2022-10-14T11:17:23.067Z,66
2022-10-14T11:18:23.067Z,65
2022-10-14T11:19:23.068Z,60
2022-10-14T11:20:23.055Z,61
2022-10-14T11:21:23.068Z,59
2022-10-14T11:22:23.134Z,62
2022-10-14T11:23:23.069Z,57
2022-10-14T11:24:23.056Z,60
2022-10-14T11:25:23.070Z,63
2022-10-14T11:26:23.071Z,64
2022-10-14T11:27:23.071Z,65
2022-10-14T11:28:23.058Z,67
2022-10-14T11:29:23.072Z,76
2022-10-14T11:30:23.073Z,77
2022-10-14T11:31:23.059Z,73
2022-10-14T11:32:23.060Z,70
2022-10-14T11:33:23.073Z,67
2022-10-14T11:34:23.074Z,53
2022-10-14T11:35:23.061Z,53
2022-10-14T11:36:23.075Z,62
2022-10-14T11:37:23.075Z,45
2022-10-14T11:38:23.076Z,49
2022-10-14T11:39:23.063Z,53
2022-10-14T11:40:23.076Z,50
2022-10-14T11:41:23.083Z,64
2022-10-14T11:42:23.077Z,62
2022-10-14T11:43:23.065Z,73
2022-10-14T11:44:23.078Z,77
2022-10-14T11:45:23.079Z,68
2022-10-14T11:46:23.079Z,59
2022-10-14T11:47:23.067Z,68
2022-10-14T11:48:23.080Z,58
2022-10-14T11:49:23.081Z,55
2022-10-14T11:50:23.068Z,58
2022-10-14T11:51:23.068Z,56
2022-10-14T11:52:23.082Z,57
2022-10-14T11:53:23.108Z,50
2022-10-14T11:54:23.070Z,51
2022-10-14T11:55:23.083Z,52
2022-10-14T11:56:23.084Z,58
2022-10-14T11:57:23.084Z,58
2022-10-14T11:58:23.071Z,64
2022-10-14T11:59:23.085Z,69
2022-10-14T12:00:23.086Z,108
2022-10-14T12:01:23.086Z,127
2022-10-14T12:02:23.073Z,142
2022-10-14T12:03:23.087Z,122
2022-10-14T12:04:23.088Z,115
2022-10-14T12:05:23.075Z,115
2022-10-14T12:06:23.075Z,102
2022-10-14T12:07:23.089Z,77
2022-10-14T12:08:23.090Z,66
2022-10-14T12:09:23.076Z,68
2022-10-14T12:10:23.077Z,62
2022-10-14T12:11:23.090Z,61
2022-10-14T12:12:23.092Z,60
2022-10-14T12:13:23.078Z,53
2022-10-14T12:14:23.092Z,56
2022-10-14T12:15:23.092Z,69
2022-10-14T12:16:23.093Z,60
2022-10-14T12:17:23.080Z,60
2022-10-14T12:18:23.094Z,56
2022-10-14T12:19:23.095Z,58
2022-10-14T12:20:23.094Z,65
2022-10-14T12:21:23.082Z,64
2022-10-14T12:22:23.095Z,55
2022-10-14T12:23:23.096Z,52
2022-10-14T12:24:23.083Z,55
2022-10-14T12:25:23.083Z,47
2022-10-14T12:26:23.097Z,50
2022-10-14T12:27:23.098Z,57
2022-10-14T12:28:23.085Z,55
2022-10-14T12:29:23.085Z,50
2022-10-14T12:30:23.099Z,56
2022-10-14T12:31:23.099Z,53
2022-10-14T12:32:23.086Z,54
2022-10-14T12:33:23.100Z,52
2022-10-14T12:34:23.100Z,50
2022-10-14T12:35:23.101Z,51
2022-10-14T12:36:23.088Z,53
2022-10-14T12:37:23.102Z,40
2022-10-14T12:38:23.103Z,35
2022-10-14T12:39:23.102Z,33
2022-10-14T12:40:23.090Z,40
2022-10-14T12:41:23.104Z,39
2022-10-14T12:42:23.105Z,43
2022-10-14T12:43:23.091Z,46
2022-10-14T12:44:23.092Z,57
2022-10-14T12:45:23.105Z,67
2022-10-14T12:46:23.106Z,54
2022-10-14T12:47:23.093Z,48
2022-10-14T12:48:23.148Z,56
2022-10-14T12:49:23.107Z,44
2022-10-14T12:50:23.108Z,40
2022-10-14T12:51:23.095Z,44
2022-10-14T12:52:23.108Z,45
2022-10-14T12:53:23.109Z,49
2022-10-14T12:54:23.109Z,46
2022-10-14T12:55:23.096Z,54
2022-10-14T12:56:23.110Z,39
2022-10-14T12:57:23.111Z,45
2022-10-14T12:58:23.111Z,43
2022-10-14T12:59:23.098Z,41
2022-10-14T13:00:23.111Z,50
2022-10-14T13:01:23.113Z,47
2022-10-14T13:02:23.099Z,54
2022-10-14T13:03:23.100Z,56
2022-10-14T13:04:23.113Z,54
2022-10-14T13:05:23.114Z,60
2022-10-14T13:06:23.101Z,54
2022-10-14T13:07:23.141Z,46
2022-10-14T13:08:23.115Z,49
2022-10-14T13:09:23.115Z,53
2022-10-14T13:10:23.103Z,56
2022-10-14T13:11:23.116Z,56
2022-10-14T13:12:23.117Z,48
2022-10-14T13:13:23.117Z,41
2022-10-14T13:14:23.104Z,46
2022-10-14T13:15:23.118Z,50
2022-10-14T13:16:23.119Z,45
2022-10-14T13:17:23.119Z,56
2022-10-14T13:18:23.106Z,61
2022-10-14T13:19:23.161Z,62
2022-10-14T13:20:23.121Z,58
2022-10-14T13:21:23.107Z,52
2022-10-14T13:22:23.108Z,48
2022-10-14T13:23:23.121Z,55
2022-10-14T13:24:23.122Z,55
2022-10-14T13:25:23.109Z,56
2022-10-14T13:26:23.122Z,54
2022-10-14T13:27:23.123Z,59
2022-10-14T13:28:23.123Z,59
2022-10-14T13:29:23.110Z,65
2022-10-14T13:30:23.124Z,66
2022-10-14T13:31:23.125Z,61
2022-10-14T13:32:23.125Z,62
2022-10-14T13:33:23.112Z,66
2022-10-14T13:34:23.126Z,76
2022-10-14T13:35:23.127Z,69
2022-10-14T13:36:23.126Z,65
2022-10-14T13:37:23.114Z,54
2022-10-14T13:38:23.127Z,54
2022-10-14T13:39:23.128Z,64
2022-10-14T13:40:23.115Z,60
2022-10-14T13:41:23.115Z,56
2022-10-14T13:42:23.129Z,57
2022-10-14T13:43:23.130Z,46
2022-10-14T13:44:23.116Z,45
2022-10-14T13:45:23.130Z,54
2022-10-14T13:46:23.131Z,54
2022-10-14T13:47:23.131Z,74
2022-10-14T13:48:23.118Z,70
2022-10-14T13:49:23.132Z,69
2022-10-14T13:50:23.133Z,75
2022-10-14T13:51:23.132Z,86
2022-10-14T13:52:23.120Z,81
2022-10-14T13:53:23.133Z,69
2022-10-14T13:54:23.134Z,58
2022-10-14T13:55:23.121Z,56
2022-10-14T13:56:23.121Z,55
2022-10-14T13:57:23.135Z,49
2022-10-14T13:58:23.136Z,57
2022-10-14T13:59:23.122Z,64
2022-10-14T14:00:23.123Z,72
2022-10-14T14:01:23.136Z,73
2022-10-14T14:02:23.137Z,74
2022-10-14T14:03:23.124Z,72
2022-10-14T14:04:23.138Z,72
2022-10-14T14:05:23.138Z,70
2022-10-14T14:06:23.138Z,84
2022-10-14T14:07:23.126Z,81
2022-10-14T14:08:23.139Z,76
2022-10-14T14:09:23.140Z,69
2022-10-14T14:10:23.140Z,68
2022-10-14T14:11:23.127Z,76
2022-10-14T14:12:23.141Z,82
2022-10-14T14:13:23.142Z,73
2022-10-14T14:14:23.128Z,77
2022-10-14T14:15:23.129Z,91
2022-10-14T14:16:23.142Z,75
2022-10-14T14:17:23.143Z,73
2022-10-14T14:18:23.130Z,75